TimeCST,TemperatureF,Dew PointF,Humidity,Sea Level PressureIn,VisibilityMPH,Wind Direction,Wind SpeedMPH,Gust SpeedMPH,PrecipitationIn,Events,Conditions,WindDirDegrees,DateUTC
12:15 AM,41.0,35.6,81,30.03,10.0,SE,11.5,-,N/A,,Overcast,140,2013-03-09 06:15:00
12:35 AM,41.0,35.6,81,30.03,7.0,SE,11.5,-,N/A,Rain,Rain,130,2013-03-09 06:35:00
12:55 AM,41.0,35.6,81,30.04,10.0,SE,10.4,-,N/A,,Overcast,140,2013-03-09 06:55:00
1:15 AM,41.0,35.6,81,30.04,10.0,SE,9.2,-,N/A,,Overcast,130,2013-03-09 07:15:00
1:35 AM,41.0,35.6,81,30.03,10.0,SE,10.4,-,N/A,,Overcast,130,2013-03-09 07:35:00
1:55 AM,39.2,35.6,87,30.02,10.0,SE,9.2,-,N/A,,Overcast,130,2013-03-09 07:55:00
2:15 AM,39.2,35.6,87,30.01,10.0,SE,10.4,-,N/A,,Overcast,140,2013-03-09 08:15:00
2:35 AM,39.2,37.4,93,29.99,7.0,SE,10.4,-,N/A,,Overcast,130,2013-03-09 08:35:00
2:55 AM,39.2,37.4,93,29.98,10.0,SE,11.5,-,N/A,,Overcast,130,2013-03-09 08:55:00
3:15 AM,41.0,37.4,87,29.97,10.0,SE,10.4,-,N/A,,Overcast,130,2013-03-09 09:15:00
3:35 AM,41.0,37.4,87,29.97,10.0,SE,6.9,-,N/A,,Overcast,140,2013-03-09 09:35:00
3:55 AM,41.0,37.4,87,29.96,10.0,SE,9.2,-,N/A,,Overcast,140,2013-03-09 09:55:00
4:15 AM,41.0,37.4,87,29.96,10.0,SE,9.2,-,N/A,,Overcast,140,2013-03-09 10:15:00
4:35 AM,41.0,37.4,87,29.95,10.0,SE,9.2,-,N/A,,Overcast,130,2013-03-09 10:35:00
4:55 AM,41.0,37.4,87,29.94,10.0,SE,10.4,-,N/A,,Overcast,140,2013-03-09 10:55:00
5:15 AM,41.0,37.4,87,29.94,10.0,SE,11.5,-,N/A,,Overcast,140,2013-03-09 11:15:00
5:35 AM,41.0,37.4,87,29.93,10.0,SE,9.2,-,N/A,,Overcast,140,2013-03-09 11:35:00
5:55 AM,41.0,37.4,87,29.92,10.0,SE,10.4,-,N/A,,Mostly Cloudy,140,2013-03-09 11:55:00
6:15 AM,41.0,37.4,87,29.91,10.0,SE,11.5,-,N/A,,Mostly Cloudy,140,2013-03-09 12:15:00
6:35 AM,41.0,37.4,87,29.91,10.0,SSE,8.1,-,N/A,,Mostly Cloudy,150,2013-03-09 12:35:00
6:55 AM,41.0,37.4,87,29.90,10.0,SE,9.2,-,N/A,,Scattered Clouds,140,2013-03-09 12:55:00
7:15 AM,41.0,37.4,87,29.90,10.0,SE,13.8,-,N/A,,Scattered Clouds,140,2013-03-09 13:15:00
7:35 AM,42.8,37.4,81,29.90,10.0,SSE,15.0,19.6,N/A,,Overcast,150,2013-03-09 13:35:00
7:55 AM,42.8,37.4,81,29.89,10.0,SE,13.8,-,N/A,,Overcast,140,2013-03-09 13:55:00
8:15 AM,42.8,37.4,81,29.88,10.0,SSE,13.8,19.6,N/A,,Overcast,150,2013-03-09 14:15:00
8:35 AM,42.8,37.4,81,29.88,10.0,SSE,10.4,-,N/A,,Overcast,150,2013-03-09 14:35:00
8:55 AM,42.8,37.4,81,29.87,10.0,SE,12.7,-,N/A,,Overcast,140,2013-03-09 14:55:00
9:15 AM,44.6,37.4,76,29.86,10.0,SE,15.0,20.7,N/A,,Overcast,140,2013-03-09 15:15:00
9:35 AM,44.6,37.4,76,29.85,10.0,SE,13.8,-,N/A,,Overcast,140,2013-03-09 15:35:00
9:55 AM,44.6,37.4,76,29.85,10.0,SSE,12.7,-,N/A,,Overcast,150,2013-03-09 15:55:00
10:15 AM,44.6,37.4,76,29.83,10.0,SE,16.1,19.6,N/A,,Overcast,140,2013-03-09 16:15:00
10:35 AM,46.4,37.4,71,29.82,10.0,SE,15.0,-,N/A,,Overcast,140,2013-03-09 16:35:00
10:55 AM,46.4,37.4,71,29.81,10.0,SE,13.8,19.6,N/A,,Overcast,140,2013-03-09 16:55:00
11:15 AM,48.2,39.2,71,29.80,10.0,SSE,9.2,-,N/A,,Overcast,150,2013-03-09 17:15:00
11:35 AM,50.0,39.2,66,29.80,10.0,SSE,9.2,-,N/A,,Overcast,160,2013-03-09 17:35:00
11:55 AM,51.8,41.0,67,29.79,10.0,SSE,9.2,-,N/A,,Overcast,150,2013-03-09 17:55:00
12:15 PM,53.6,41.0,62,29.78,10.0,SSE,8.1,-,N/A,,Mostly Cloudy,150,2013-03-09 18:15:00
12:35 PM,55.4,41.0,58,29.77,10.0,Calm,Calm,-,N/A,,Mostly Cloudy,0,2013-03-09 18:35:00
12:55 PM,57.2,42.8,59,29.76,10.0,SSE,9.2,-,N/A,,Overcast,160,2013-03-09 18:55:00
1:15 PM,59.0,41.0,51,29.74,10.0,South,6.9,-,N/A,,Overcast,170,2013-03-09 19:15:00
1:35 PM,59.0,42.8,55,29.73,10.0,SSE,5.8,-,N/A,,Overcast,160,2013-03-09 19:35:00
1:55 PM,59.0,42.8,55,29.72,10.0,South,4.6,-,N/A,,Overcast,170,2013-03-09 19:55:00
2:15 PM,59.0,42.8,55,29.71,10.0,SSE,3.5,-,N/A,,Overcast,160,2013-03-09 20:15:00
2:35 PM,59.0,44.6,59,29.70,10.0,SE,4.6,-,N/A,,Overcast,140,2013-03-09 20:35:00
2:55 PM,59.0,42.8,55,29.70,10.0,SSE,6.9,-,N/A,Thunderstorm,Overcast,160,2013-03-09 20:55:00
3:15 PM,59.0,42.8,55,29.70,10.0,SSE,8.1,-,N/A,,Overcast,160,2013-03-09 21:15:00
3:35 PM,59.0,42.8,55,29.69,10.0,SSE,6.9,-,N/A,,Overcast,160,2013-03-09 21:35:00
3:55 PM,59.0,42.8,55,29.69,10.0,SSE,8.1,-,N/A,,Overcast,160,2013-03-09 21:55:00
4:15 PM,60.8,42.8,52,29.68,10.0,SSE,8.1,-,N/A,,Overcast,150,2013-03-09 22:15:00
4:35 PM,60.8,44.6,55,29.68,10.0,South,5.8,-,N/A,,Overcast,170,2013-03-09 22:35:00
5:15 PM,60.8,48.2,63,29.66,10.0,South,6.9,-,N/A,Thunderstorm,Overcast,170,2013-03-09 23:15:00
5:35 PM,60.8,48.2,63,29.67,10.0,South,8.1,-,N/A,Thunderstorm,Overcast,170,2013-03-09 23:35:00
6:15 PM,48.2,41.0,76,29.68,10.0,WNW,6.9,-,N/A,,Overcast,290,2013-03-10 00:15:00
6:35 PM,46.4,41.0,81,29.68,10.0,NNW,3.5,-,N/A,Thunderstorm,Overcast,330,2013-03-10 00:35:00
6:55 PM,46.4,41.0,81,29.67,10.0,NNW,4.6,-,N/A,Rain-Thunderstorm,Light Thunderstorms and Rain,340,2013-03-10 00:55:00
7:15 PM,44.6,41.0,87,29.69,10.0,NNW,3.5,-,N/A,Rain-Thunderstorm,Light Thunderstorms and Rain,340,2013-03-10 01:15:00
7:35 PM,44.6,41.0,87,29.70,10.0,NNW,3.5,-,0.01,Rain-Thunderstorm,Light Thunderstorms and Rain,330,2013-03-10 01:35:00
7:55 PM,44.6,41.0,87,29.69,10.0,North,5.8,-,0.02,Rain,Rain,10,2013-03-10 01:55:00
8:15 PM,44.6,42.8,93,29.68,7.0,NNE,3.5,-,N/A,Rain-Thunderstorm,Rain,20,2013-03-10 02:15:00
8:35 PM,44.6,42.8,93,29.68,5.0,East,5.8,-,N/A,Rain,Light Rain,80,2013-03-10 02:35:00
8:55 PM,44.6,42.8,93,29.68,5.0,ENE,5.8,-,0.01,,Drizzle,70,2013-03-10 02:55:00
9:15 PM,44.6,42.8,93,29.70,3.0,NW,8.1,-,N/A,Rain,Light Rain,310,2013-03-10 03:15:00
9:35 PM,42.8,42.8,100,29.69,3.0,Calm,Calm,-,N/A,,Drizzle,0,2013-03-10 03:35:00
9:55 PM,42.8,42.8,100,29.69,5.0,NNW,3.5,-,N/A,Rain,Rain,340,2013-03-10 03:55:00
10:15 PM,42.8,42.8,100,29.69,1.2,NNW,6.9,-,N/A,Rain,Rain,340,2013-03-10 04:15:00
10:35 PM,44.6,42.8,93,29.68,3.0,North,3.5,-,0.01,Rain,Rain,360,2013-03-10 04:35:00
10:55 PM,44.6,42.8,93,29.69,1.5,Calm,Calm,-,0.01,Rain,Rain,0,2013-03-10 04:55:00
11:35 PM,46.4,44.6,93,29.68,2.0,East,6.9,-,N/A,Rain,Rain,80,2013-03-10 05:35:00
11:55 PM,46.4,44.6,93,29.66,2.0,ESE,13.8,-,N/A,Rain,Light Rain,110,2013-03-10 05:55:00